St. Simon — WDI9604 — position and weather

sailwx.info

Track history (hours):
 
Tides and Currents Weather Stations Pressure Air Temp Water Temp Dewpoint Dewpoint Depression Visibility Wind Speed Wind Dir Waves Ship Positions

St. Simon

Owner: Marquette Transportation Company Gulf-Inland, LLC, Jefferson, LA. More information available from US FCC via Universal Licensing System and Coast Guard Vessel Documentation Center.

Last reported at 2018-Jun-16 12:49 UTC. Time now 2018-Jun-20 07:15 UTC.
Position N 31°47' W 091°22'.

Length 26 m; draft 2.7 m.

Type: Ship (hazmat cat B). MMSI: 367750340.

Date/timePositionNaut miles runAvg speedWind from/ knotsBaromVisibWave heightAir tempDewpointWater temp
2018-Jun-16 12:49N 31°47' W 091°22'3 8.9
2018-Jun-16 12:30N 31°50' W 091°21'4 7.4
2018-Jun-16 11:58N 31°51' W 091°17'4 8.8
2018-Jun-16 11:30N 31°54' W 091°12'6 8.2
2018-Jun-16 10:49N 31°59' W 091°10'3 8.6
2018-Jun-16 10:30N 31°59' W 091°07'4 8.4
2018-Jun-16 10:00N 32°02' W 091°04'4 7.2
2018-Jun-16 09:25N 32°06' W 091°06'2 5.3
2018-Jun-16 09:00N 32°08' W 091°05'4 7.4
2018-Jun-16 08:30N 32°09' W 091°00'4 8.7
2018-Jun-16 08:00N 32°13' W 090°59'4 8.3
2018-Jun-16 07:30N 32°17' W 090°57'4 8.1
2018-Jun-16 07:00N 32°20' W 090°54'4 7.7
2018-Jun-16 06:30N 32°21' W 090°58'3 6.4
2018-Jun-16 06:00N 32°24' W 090°59'4 7.7
2018-Jun-16 05:30N 32°26' W 091°03'4 8.3
2018-Jun-16 05:00N 32°29' W 091°07'4 8.7
2018-Jun-16 04:30N 32°33' W 091°06'4 8.7
2018-Jun-16 04:00N 32°37' W 091°09'4 7.5
2018-Jun-16 03:30N 32°40' W 091°07'4 8.4
2018-Jun-16 02:59N 32°43' W 091°03'  
Track history (hours):
 
Tides and Currents Weather Stations Pressure Air Temp Water Temp Dewpoint Dewpoint Depression Visibility Wind Speed Wind Dir Waves Ship Positions

St. Simon

Owner: Marquette Transportation Company Gulf-Inland, LLC, Jefferson, LA. More information available from US FCC via Universal Licensing System and Coast Guard Vessel Documentation Center.

Last reported at 2018-Jun-16 12:49 UTC. Time now 2018-Jun-20 07:15 UTC.
Position N 31°47' W 091°22'.

Length 26 m; draft 2.7 m.

Type: Ship (hazmat cat B). MMSI: 367750340.

Date/timePositionNaut miles runAvg speedWind from/ knotsBaromVisibWave heightAir tempDewpointWater temp
2018-Jun-16 12:49N 31°47' W 091°22'3 8.9
2018-Jun-16 12:30N 31°50' W 091°21'4 7.4
2018-Jun-16 11:58N 31°51' W 091°17'4 8.8
2018-Jun-16 11:30N 31°54' W 091°12'6 8.2
2018-Jun-16 10:49N 31°59' W 091°10'3 8.6
2018-Jun-16 10:30N 31°59' W 091°07'4 8.4
2018-Jun-16 10:00N 32°02' W 091°04'4 7.2
2018-Jun-16 09:25N 32°06' W 091°06'2 5.3
2018-Jun-16 09:00N 32°08' W 091°05'4 7.4
2018-Jun-16 08:30N 32°09' W 091°00'4 8.7
2018-Jun-16 08:00N 32°13' W 090°59'4 8.3
2018-Jun-16 07:30N 32°17' W 090°57'4 8.1
2018-Jun-16 07:00N 32°20' W 090°54'4 7.7
2018-Jun-16 06:30N 32°21' W 090°58'3 6.4
2018-Jun-16 06:00N 32°24' W 090°59'4 7.7
2018-Jun-16 05:30N 32°26' W 091°03'4 8.3
2018-Jun-16 05:00N 32°29' W 091°07'4 8.7
2018-Jun-16 04:30N 32°33' W 091°06'4 8.7
2018-Jun-16 04:00N 32°37' W 091°09'4 7.5
2018-Jun-16 03:30N 32°40' W 091°07'4 8.4
2018-Jun-16 02:59N 32°43' W 091°03'  

Dump ship's entire track history